sensor_id;sensor_type;location;lat;lon;timestamp;P1;durP1;ratioP1;P2;durP2;ratioP2
38785;SDS011;24535;45.508;12.252;2022-08-20T00:00:30;8.05;;;4.38;;
38785;SDS011;24535;45.508;12.252;2022-08-20T00:03:00;7.43;;;4.35;;
38785;SDS011;24535;45.508;12.252;2022-08-20T00:05:30;9.27;;;4.05;;
38785;SDS011;24535;45.508;12.252;2022-08-20T00:08:01;6.80;;;3.60;;
38785;SDS011;24535;45.508;12.252;2022-08-20T00:10:29;7.35;;;3.30;;
38785;SDS011;24535;45.508;12.252;2022-08-20T00:12:56;6.50;;;3.97;;
38785;SDS011;24535;45.508;12.252;2022-08-20T00:15:24;7.45;;;2.95;;
38785;SDS011;24535;45.508;12.252;2022-08-20T00:17:53;7.03;;;3.15;;
38785;SDS011;24535;45.508;12.252;2022-08-20T00:20:21;6.57;;;3.17;;
38785;SDS011;24535;45.508;12.252;2022-08-20T00:22:48;6.55;;;3.63;;
38785;SDS011;24535;45.508;12.252;2022-08-20T00:25:14;5.30;;;3.83;;
38785;SDS011;24535;45.508;12.252;2022-08-20T00:27:41;7.18;;;3.38;;
38785;SDS011;24535;45.508;12.252;2022-08-20T00:30:08;7.07;;;2.92;;
38785;SDS011;24535;45.508;12.252;2022-08-20T00:32:45;5.70;;;3.30;;
38785;SDS011;24535;45.508;12.252;2022-08-20T00:35:14;5.80;;;3.47;;
38785;SDS011;24535;45.508;12.252;2022-08-20T00:37:41;12.70;;;3.90;;
38785;SDS011;24535;45.508;12.252;2022-08-20T00:40:07;5.63;;;3.63;;
38785;SDS011;24535;45.508;12.252;2022-08-20T00:42:41;9.20;;;3.60;;
38785;SDS011;24535;45.508;12.252;2022-08-20T00:45:10;4.22;;;2.75;;
38785;SDS011;24535;45.508;12.252;2022-08-20T00:47:36;5.38;;;3.20;;
38785;SDS011;24535;45.508;12.252;2022-08-20T00:50:05;7.05;;;3.53;;
38785;SDS011;24535;45.508;12.252;2022-08-20T00:52:31;5.93;;;3.40;;
38785;SDS011;24535;45.508;12.252;2022-08-20T00:54:57;6.63;;;3.38;;
38785;SDS011;24535;45.508;12.252;2022-08-20T00:57:35;6.53;;;3.63;;
38785;SDS011;24535;45.508;12.252;2022-08-20T01:00:08;5.15;;;3.58;;
38785;SDS011;24535;45.508;12.252;2022-08-20T01:02:39;10.25;;;4.40;;
38785;SDS011;24535;45.508;12.252;2022-08-20T01:05:06;10.68;;;4.38;;
38785;SDS011;24535;45.508;12.252;2022-08-20T01:07:33;7.45;;;5.10;;
38785;SDS011;24535;45.508;12.252;2022-08-20T01:10:05;6.47;;;3.85;;
38785;SDS011;24535;45.508;12.252;2022-08-20T01:12:42;5.63;;;3.80;;
38785;SDS011;24535;45.508;12.252;2022-08-20T01:15:11;8.18;;;3.25;;
38785;SDS011;24535;45.508;12.252;2022-08-20T01:17:45;7.78;;;3.63;;
38785;SDS011;24535;45.508;12.252;2022-08-20T01:20:33;7.35;;;3.47;;
38785;SDS011;24535;45.508;12.252;2022-08-20T01:28:46;6.22;;;4.00;;
38785;SDS011;24535;45.508;12.252;2022-08-20T01:31:20;6.28;;;3.60;;
38785;SDS011;24535;45.508;12.252;2022-08-20T01:33:54;7.63;;;2.90;;
38785;SDS011;24535;45.508;12.252;2022-08-20T01:36:22;6.50;;;3.08;;
38785;SDS011;24535;45.508;12.252;2022-08-20T01:38:57;5.18;;;3.88;;
38785;SDS011;24535;45.508;12.252;2022-08-20T01:41:35;8.35;;;4.90;;
38785;SDS011;24535;45.508;12.252;2022-08-20T01:44:15;7.30;;;4.05;;
38785;SDS011;24535;45.508;12.252;2022-08-20T01:46:41;8.20;;;3.53;;
38785;SDS011;24535;45.508;12.252;2022-08-20T01:49:10;7.72;;;3.83;;
38785;SDS011;24535;45.508;12.252;2022-08-20T01:51:38;6.53;;;3.78;;
38785;SDS011;24535;45.508;12.252;2022-08-20T01:54:04;5.50;;;3.15;;
38785;SDS011;24535;45.508;12.252;2022-08-20T01:59:18;10.23;;;4.55;;
38785;SDS011;24535;45.508;12.252;2022-08-20T02:01:43;6.43;;;3.92;;
38785;SDS011;24535;45.508;12.252;2022-08-20T02:04:09;7.95;;;4.15;;
38785;SDS011;24535;45.508;12.252;2022-08-20T02:06:37;8.30;;;3.95;;
38785;SDS011;24535;45.508;12.252;2022-08-20T02:09:06;8.23;;;3.90;;
38785;SDS011;24535;45.508;12.252;2022-08-20T02:11:33;4.60;;;3.78;;
38785;SDS011;24535;45.508;12.252;2022-08-20T02:14:00;5.55;;;3.08;;
38785;SDS011;24535;45.508;12.252;2022-08-20T02:16:30;8.18;;;4.28;;
38785;SDS011;24535;45.508;12.252;2022-08-20T02:19:01;5.45;;;3.97;;
38785;SDS011;24535;45.508;12.252;2022-08-20T02:21:37;6.88;;;4.25;;
38785;SDS011;24535;45.508;12.252;2022-08-20T02:24:09;8.65;;;4.05;;
38785;SDS011;24535;45.508;12.252;2022-08-20T02:26:35;6.40;;;3.65;;
38785;SDS011;24535;45.508;12.252;2022-08-20T02:29:02;6.65;;;3.20;;
38785;SDS011;24535;45.508;12.252;2022-08-20T02:31:30;8.75;;;4.43;;
38785;SDS011;24535;45.508;12.252;2022-08-20T02:36:48;10.77;;;4.57;;
38785;SDS011;24535;45.508;12.252;2022-08-20T02:39:14;9.07;;;4.85;;
38785;SDS011;24535;45.508;12.252;2022-08-20T02:41:40;10.98;;;4.47;;
38785;SDS011;24535;45.508;12.252;2022-08-20T02:44:06;9.70;;;4.78;;
38785;SDS011;24535;45.508;12.252;2022-08-20T02:46:33;7.68;;;3.90;;
38785;SDS011;24535;45.508;12.252;2022-08-20T02:48:59;6.75;;;4.13;;
38785;SDS011;24535;45.508;12.252;2022-08-20T02:51:25;6.97;;;4.50;;
38785;SDS011;24535;45.508;12.252;2022-08-20T02:53:52;10.50;;;4.95;;
38785;SDS011;24535;45.508;12.252;2022-08-20T02:56:17;8.93;;;4.97;;
38785;SDS011;24535;45.508;12.252;2022-08-20T02:58:43;5.93;;;5.10;;
38785;SDS011;24535;45.508;12.252;2022-08-20T03:01:11;6.97;;;4.55;;
38785;SDS011;24535;45.508;12.252;2022-08-20T03:03:39;11.48;;;5.32;;
38785;SDS011;24535;45.508;12.252;2022-08-20T03:06:06;6.65;;;4.82;;
38785;SDS011;24535;45.508;12.252;2022-08-20T03:08:34;8.10;;;4.82;;
38785;SDS011;24535;45.508;12.252;2022-08-20T03:11:02;8.75;;;4.65;;
38785;SDS011;24535;45.508;12.252;2022-08-20T03:13:30;12.60;;;3.60;;
38785;SDS011;24535;45.508;12.252;2022-08-20T03:15:57;6.03;;;3.25;;
38785;SDS011;24535;45.508;12.252;2022-08-20T03:18:26;7.55;;;4.20;;
38785;SDS011;24535;45.508;12.252;2022-08-20T03:20:54;7.22;;;3.55;;
38785;SDS011;24535;45.508;12.252;2022-08-20T03:23:20;8.05;;;3.75;;
38785;SDS011;24535;45.508;12.252;2022-08-20T03:25:47;5.88;;;2.00;;
38785;SDS011;24535;45.508;12.252;2022-08-20T03:28:13;8.50;;;3.85;;
38785;SDS011;24535;45.508;12.252;2022-08-20T03:30:39;8.60;;;4.25;;
38785;SDS011;24535;45.508;12.252;2022-08-20T03:33:06;6.07;;;3.53;;
38785;SDS011;24535;45.508;12.252;2022-08-20T03:35:32;7.25;;;4.88;;
38785;SDS011;24535;45.508;12.252;2022-08-20T03:37:59;7.63;;;5.40;;
38785;SDS011;24535;45.508;12.252;2022-08-20T03:40:27;7.10;;;4.30;;
38785;SDS011;24535;45.508;12.252;2022-08-20T03:42:54;8.32;;;4.60;;
38785;SDS011;24535;45.508;12.252;2022-08-20T03:45:20;6.53;;;4.35;;
38785;SDS011;24535;45.508;12.252;2022-08-20T03:47:47;7.63;;;4.40;;
38785;SDS011;24535;45.508;12.252;2022-08-20T03:50:14;7.68;;;4.43;;
38785;SDS011;24535;45.508;12.252;2022-08-20T03:52:41;6.75;;;3.88;;
38785;SDS011;24535;45.508;12.252;2022-08-20T03:55:07;7.68;;;5.10;;
38785;SDS011;24535;45.508;12.252;2022-08-20T03:57:33;7.25;;;4.15;;
38785;SDS011;24535;45.508;12.252;2022-08-20T03:59:59;7.07;;;4.85;;
38785;SDS011;24535;45.508;12.252;2022-08-20T04:02:26;6.18;;;4.05;;
38785;SDS011;24535;45.508;12.252;2022-08-20T04:04:52;6.55;;;4.03;;
38785;SDS011;24535;45.508;12.252;2022-08-20T04:07:20;9.65;;;4.70;;
38785;SDS011;24535;45.508;12.252;2022-08-20T04:09:52;6.20;;;4.80;;
38785;SDS011;24535;45.508;12.252;2022-08-20T04:12:21;7.60;;;4.38;;
38785;SDS011;24535;45.508;12.252;2022-08-20T04:14:47;10.73;;;4.95;;
38785;SDS011;24535;45.508;12.252;2022-08-20T04:17:13;7.25;;;4.72;;
38785;SDS011;24535;45.508;12.252;2022-08-20T04:19:40;10.35;;;4.75;;
38785;SDS011;24535;45.508;12.252;2022-08-20T04:22:06;8.27;;;5.15;;
38785;SDS011;24535;45.508;12.252;2022-08-20T04:24:32;8.63;;;4.38;;
38785;SDS011;24535;45.508;12.252;2022-08-20T04:26:59;12.70;;;4.80;;
38785;SDS011;24535;45.508;12.252;2022-08-20T04:29:26;6.63;;;3.72;;
38785;SDS011;24535;45.508;12.252;2022-08-20T04:32:11;6.60;;;3.90;;
38785;SDS011;24535;45.508;12.252;2022-08-20T04:34:36;5.47;;;3.15;;
38785;SDS011;24535;45.508;12.252;2022-08-20T04:37:03;7.47;;;3.67;;
38785;SDS011;24535;45.508;12.252;2022-08-20T04:39:29;5.88;;;3.78;;
38785;SDS011;24535;45.508;12.252;2022-08-20T04:41:55;8.75;;;4.15;;
38785;SDS011;24535;45.508;12.252;2022-08-20T04:44:20;8.43;;;3.78;;
38785;SDS011;24535;45.508;12.252;2022-08-20T04:46:46;5.18;;;3.78;;
38785;SDS011;24535;45.508;12.252;2022-08-20T04:49:12;3.13;;;2.20;;
38785;SDS011;24535;45.508;12.252;2022-08-20T04:51:38;8.55;;;4.15;;
38785;SDS011;24535;45.508;12.252;2022-08-20T04:54:03;5.10;;;2.80;;
38785;SDS011;24535;45.508;12.252;2022-08-20T04:56:30;7.35;;;3.35;;
38785;SDS011;24535;45.508;12.252;2022-08-20T04:59:01;7.03;;;4.10;;
38785;SDS011;24535;45.508;12.252;2022-08-20T05:01:29;5.50;;;3.60;;
38785;SDS011;24535;45.508;12.252;2022-08-20T05:03:56;5.95;;;4.28;;
38785;SDS011;24535;45.508;12.252;2022-08-20T05:06:24;4.95;;;3.42;;
38785;SDS011;24535;45.508;12.252;2022-08-20T05:08:53;6.47;;;3.97;;
38785;SDS011;24535;45.508;12.252;2022-08-20T05:11:20;8.00;;;3.78;;
38785;SDS011;24535;45.508;12.252;2022-08-20T05:13:46;5.68;;;3.70;;
38785;SDS011;24535;45.508;12.252;2022-08-20T05:16:12;5.72;;;3.45;;
38785;SDS011;24535;45.508;12.252;2022-08-20T05:18:39;4.07;;;3.10;;
38785;SDS011;24535;45.508;12.252;2022-08-20T05:21:04;5.90;;;3.28;;
38785;SDS011;24535;45.508;12.252;2022-08-20T05:23:31;5.85;;;3.40;;
38785;SDS011;24535;45.508;12.252;2022-08-20T05:25:58;7.63;;;3.30;;
38785;SDS011;24535;45.508;12.252;2022-08-20T05:28:25;6.65;;;3.50;;
38785;SDS011;24535;45.508;12.252;2022-08-20T05:30:54;7.03;;;3.63;;
38785;SDS011;24535;45.508;12.252;2022-08-20T05:33:21;9.45;;;3.78;;
38785;SDS011;24535;45.508;12.252;2022-08-20T05:35:47;7.00;;;4.07;;
38785;SDS011;24535;45.508;12.252;2022-08-20T05:38:16;7.57;;;3.10;;
38785;SDS011;24535;45.508;12.252;2022-08-20T05:40:43;5.65;;;3.25;;
38785;SDS011;24535;45.508;12.252;2022-08-20T05:43:09;4.80;;;2.58;;
38785;SDS011;24535;45.508;12.252;2022-08-20T05:45:36;6.88;;;2.95;;
38785;SDS011;24535;45.508;12.252;2022-08-20T05:48:16;5.18;;;3.35;;
38785;SDS011;24535;45.508;12.252;2022-08-20T05:50:43;8.68;;;3.13;;
38785;SDS011;24535;45.508;12.252;2022-08-20T05:53:10;6.90;;;2.97;;
38785;SDS011;24535;45.508;12.252;2022-08-20T05:55:36;5.18;;;2.83;;
38785;SDS011;24535;45.508;12.252;2022-08-20T05:58:04;3.88;;;2.15;;
38785;SDS011;24535;45.508;12.252;2022-08-20T06:00:37;5.70;;;2.28;;
38785;SDS011;24535;45.508;12.252;2022-08-20T06:03:03;4.35;;;1.92;;
38785;SDS011;24535;45.508;12.252;2022-08-20T06:05:47;5.25;;;2.00;;
38785;SDS011;24535;45.508;12.252;2022-08-20T06:08:13;4.90;;;1.77;;
38785;SDS011;24535;45.508;12.252;2022-08-20T06:10:39;6.25;;;2.38;;
38785;SDS011;24535;45.508;12.252;2022-08-20T06:13:05;5.10;;;1.88;;
38785;SDS011;24535;45.508;12.252;2022-08-20T06:15:31;2.75;;;1.52;;
38785;SDS011;24535;45.508;12.252;2022-08-20T06:17:57;7.85;;;1.55;;
38785;SDS011;24535;45.508;12.252;2022-08-20T06:20:23;4.10;;;1.67;;
38785;SDS011;24535;45.508;12.252;2022-08-20T06:22:48;4.97;;;2.22;;
38785;SDS011;24535;45.508;12.252;2022-08-20T06:25:14;10.23;;;1.98;;
38785;SDS011;24535;45.508;12.252;2022-08-20T06:27:42;6.65;;;2.28;;
38785;SDS011;24535;45.508;12.252;2022-08-20T06:30:10;5.03;;;2.25;;
38785;SDS011;24535;45.508;12.252;2022-08-20T06:35:05;5.00;;;1.52;;
38785;SDS011;24535;45.508;12.252;2022-08-20T06:37:33;3.80;;;1.73;;
38785;SDS011;24535;45.508;12.252;2022-08-20T06:43:03;7.35;;;1.50;;
38785;SDS011;24535;45.508;12.252;2022-08-20T06:45:31;2.97;;;1.45;;
38785;SDS011;24535;45.508;12.252;2022-08-20T06:47:58;4.07;;;1.88;;
38785;SDS011;24535;45.508;12.252;2022-08-20T06:50:26;4.45;;;1.33;;
38785;SDS011;24535;45.508;12.252;2022-08-20T06:55:26;6.97;;;2.13;;
38785;SDS011;24535;45.508;12.252;2022-08-20T06:57:56;6.93;;;1.58;;
38785;SDS011;24535;45.508;12.252;2022-08-20T07:00:25;3.88;;;1.60;;
38785;SDS011;24535;45.508;12.252;2022-08-20T07:02:57;6.00;;;1.60;;
38785;SDS011;24535;45.508;12.252;2022-08-20T07:05:25;3.47;;;1.42;;
38785;SDS011;24535;45.508;12.252;2022-08-20T07:10:20;2.95;;;1.33;;
38785;SDS011;24535;45.508;12.252;2022-08-20T07:12:47;2.50;;;0.88;;
38785;SDS011;24535;45.508;12.252;2022-08-20T07:15:14;4.72;;;1.35;;
38785;SDS011;24535;45.508;12.252;2022-08-20T07:17:41;1.92;;;0.98;;
38785;SDS011;24535;45.508;12.252;2022-08-20T07:20:08;2.35;;;1.08;;
38785;SDS011;24535;45.508;12.252;2022-08-20T07:22:45;4.65;;;1.38;;
38785;SDS011;24535;45.508;12.252;2022-08-20T07:25:12;2.78;;;1.00;;
38785;SDS011;24535;45.508;12.252;2022-08-20T07:27:40;3.42;;;1.27;;
38785;SDS011;24535;45.508;12.252;2022-08-20T07:30:07;3.20;;;1.33;;
38785;SDS011;24535;45.508;12.252;2022-08-20T07:32:53;3.42;;;1.17;;
38785;SDS011;24535;45.508;12.252;2022-08-20T07:35:19;1.80;;;0.88;;
38785;SDS011;24535;45.508;12.252;2022-08-20T07:37:46;2.63;;;1.00;;
38785;SDS011;24535;45.508;12.252;2022-08-20T07:40:14;1.10;;;0.60;;
38785;SDS011;24535;45.508;12.252;2022-08-20T07:42:42;3.08;;;0.93;;
38785;SDS011;24535;45.508;12.252;2022-08-20T07:45:09;5.70;;;1.30;;
38785;SDS011;24535;45.508;12.252;2022-08-20T07:47:37;3.72;;;1.00;;
38785;SDS011;24535;45.508;12.252;2022-08-20T07:50:03;2.25;;;0.93;;
38785;SDS011;24535;45.508;12.252;2022-08-20T07:52:30;2.28;;;1.15;;
38785;SDS011;24535;45.508;12.252;2022-08-20T07:54:55;2.50;;;0.90;;
38785;SDS011;24535;45.508;12.252;2022-08-20T07:57:21;2.50;;;0.88;;
38785;SDS011;24535;45.508;12.252;2022-08-20T07:59:47;2.70;;;1.23;;
38785;SDS011;24535;45.508;12.252;2022-08-20T08:02:12;4.07;;;0.85;;
38785;SDS011;24535;45.508;12.252;2022-08-20T08:04:38;3.50;;;0.85;;
38785;SDS011;24535;45.508;12.252;2022-08-20T08:07:04;5.88;;;0.98;;
38785;SDS011;24535;45.508;12.252;2022-08-20T08:12:39;2.85;;;0.75;;
38785;SDS011;24535;45.508;12.252;2022-08-20T08:15:10;3.25;;;1.05;;
38785;SDS011;24535;45.508;12.252;2022-08-20T08:17:39;5.78;;;1.40;;
38785;SDS011;24535;45.508;12.252;2022-08-20T08:20:08;3.78;;;1.90;;
38785;SDS011;24535;45.508;12.252;2022-08-20T08:22:33;3.30;;;0.90;;
38785;SDS011;24535;45.508;12.252;2022-08-20T08:24:59;2.58;;;1.05;;
38785;SDS011;24535;45.508;12.252;2022-08-20T08:27:29;6.07;;;1.42;;
38785;SDS011;24535;45.508;12.252;2022-08-20T08:29:57;4.43;;;1.20;;
38785;SDS011;24535;45.508;12.252;2022-08-20T08:32:23;1.88;;;0.88;;
38785;SDS011;24535;45.508;12.252;2022-08-20T08:34:49;4.93;;;1.50;;
38785;SDS011;24535;45.508;12.252;2022-08-20T08:37:14;3.30;;;1.30;;
38785;SDS011;24535;45.508;12.252;2022-08-20T08:39:40;1.73;;;1.00;;
38785;SDS011;24535;45.508;12.252;2022-08-20T08:42:14;5.28;;;1.33;;
38785;SDS011;24535;45.508;12.252;2022-08-20T08:44:49;4.30;;;1.58;;
38785;SDS011;24535;45.508;12.252;2022-08-20T08:47:28;3.92;;;1.58;;
38785;SDS011;24535;45.508;12.252;2022-08-20T08:49:56;2.00;;;0.93;;
38785;SDS011;24535;45.508;12.252;2022-08-20T08:52:23;6.78;;;1.73;;
38785;SDS011;24535;45.508;12.252;2022-08-20T08:54:52;2.70;;;1.33;;
38785;SDS011;24535;45.508;12.252;2022-08-20T08:57:20;3.25;;;1.23;;
38785;SDS011;24535;45.508;12.252;2022-08-20T08:59:47;3.67;;;1.13;;
38785;SDS011;24535;45.508;12.252;2022-08-20T09:02:19;4.07;;;1.42;;
38785;SDS011;24535;45.508;12.252;2022-08-20T09:04:46;3.00;;;1.52;;
38785;SDS011;24535;45.508;12.252;2022-08-20T09:07:13;3.25;;;1.00;;
38785;SDS011;24535;45.508;12.252;2022-08-20T09:09:41;2.17;;;1.00;;
38785;SDS011;24535;45.508;12.252;2022-08-20T09:12:12;1.97;;;1.00;;
38785;SDS011;24535;45.508;12.252;2022-08-20T09:14:42;2.97;;;0.93;;
38785;SDS011;24535;45.508;12.252;2022-08-20T09:17:07;2.47;;;1.05;;
38785;SDS011;24535;45.508;12.252;2022-08-20T09:19:33;2.50;;;1.00;;
38785;SDS011;24535;45.508;12.252;2022-08-20T09:21:58;4.32;;;1.33;;
38785;SDS011;24535;45.508;12.252;2022-08-20T09:24:34;1.80;;;0.90;;
38785;SDS011;24535;45.508;12.252;2022-08-20T09:26:59;1.60;;;0.93;;
38785;SDS011;24535;45.508;12.252;2022-08-20T09:29:24;6.18;;;0.90;;
38785;SDS011;24535;45.508;12.252;2022-08-20T09:31:50;2.40;;;1.10;;
38785;SDS011;24535;45.508;12.252;2022-08-20T09:34:15;1.75;;;1.10;;
38785;SDS011;24535;45.508;12.252;2022-08-20T09:36:41;4.80;;;1.27;;
38785;SDS011;24535;45.508;12.252;2022-08-20T09:39:06;1.40;;;0.80;;
38785;SDS011;24535;45.508;12.252;2022-08-20T09:41:32;1.85;;;0.82;;
38785;SDS011;24535;45.508;12.252;2022-08-20T09:43:57;1.98;;;0.80;;
38785;SDS011;24535;45.508;12.252;2022-08-20T09:46:26;3.40;;;1.25;;
38785;SDS011;24535;45.508;12.252;2022-08-20T09:48:51;2.95;;;0.80;;
38785;SDS011;24535;45.508;12.252;2022-08-20T09:51:16;3.55;;;0.90;;
38785;SDS011;24535;45.508;12.252;2022-08-20T09:53:42;3.30;;;0.75;;
38785;SDS011;24535;45.508;12.252;2022-08-20T09:56:12;4.00;;;1.30;;
38785;SDS011;24535;45.508;12.252;2022-08-20T10:01:13;1.35;;;0.80;;
38785;SDS011;24535;45.508;12.252;2022-08-20T10:03:41;1.30;;;0.70;;
38785;SDS011;24535;45.508;12.252;2022-08-20T10:06:08;1.63;;;0.80;;
38785;SDS011;24535;45.508;12.252;2022-08-20T10:08:35;1.73;;;0.98;;
38785;SDS011;24535;45.508;12.252;2022-08-20T10:11:01;3.53;;;0.98;;
38785;SDS011;24535;45.508;12.252;2022-08-20T10:13:26;3.38;;;0.82;;
38785;SDS011;24535;45.508;12.252;2022-08-20T10:15:52;3.47;;;1.50;;
38785;SDS011;24535;45.508;12.252;2022-08-20T10:18:17;2.08;;;1.00;;
38785;SDS011;24535;45.508;12.252;2022-08-20T10:20:45;2.13;;;0.93;;
38785;SDS011;24535;45.508;12.252;2022-08-20T10:23:10;4.63;;;0.73;;
38785;SDS011;24535;45.508;12.252;2022-08-20T10:25:36;3.55;;;0.95;;
38785;SDS011;24535;45.508;12.252;2022-08-20T10:28:01;4.20;;;1.15;;
38785;SDS011;24535;45.508;12.252;2022-08-20T10:30:27;8.73;;;1.00;;
38785;SDS011;24535;45.508;12.252;2022-08-20T10:32:53;2.33;;;0.60;;
38785;SDS011;24535;45.508;12.252;2022-08-20T10:35:18;5.78;;;0.75;;
38785;SDS011;24535;45.508;12.252;2022-08-20T10:37:44;3.00;;;0.90;;
38785;SDS011;24535;45.508;12.252;2022-08-20T10:40:10;2.40;;;0.93;;
38785;SDS011;24535;45.508;12.252;2022-08-20T10:42:37;2.15;;;0.70;;
38785;SDS011;24535;45.508;12.252;2022-08-20T10:45:03;1.15;;;0.60;;
38785;SDS011;24535;45.508;12.252;2022-08-20T10:47:30;1.27;;;0.52;;
38785;SDS011;24535;45.508;12.252;2022-08-20T10:49:57;2.25;;;0.80;;
38785;SDS011;24535;45.508;12.252;2022-08-20T10:52:24;2.08;;;1.05;;
38785;SDS011;24535;45.508;12.252;2022-08-20T10:54:51;5.13;;;1.00;;
38785;SDS011;24535;45.508;12.252;2022-08-20T10:57:22;3.97;;;0.90;;
38785;SDS011;24535;45.508;12.252;2022-08-20T10:59:51;2.22;;;0.68;;
38785;SDS011;24535;45.508;12.252;2022-08-20T11:02:19;2.47;;;1.00;;
38785;SDS011;24535;45.508;12.252;2022-08-20T11:04:46;1.45;;;0.77;;
38785;SDS011;24535;45.508;12.252;2022-08-20T11:07:20;1.88;;;0.88;;
38785;SDS011;24535;45.508;12.252;2022-08-20T11:09:56;2.70;;;0.70;;
38785;SDS011;24535;45.508;12.252;2022-08-20T11:12:22;3.47;;;1.00;;
38785;SDS011;24535;45.508;12.252;2022-08-20T11:14:48;1.85;;;0.70;;
38785;SDS011;24535;45.508;12.252;2022-08-20T11:17:18;3.60;;;0.85;;
38785;SDS011;24535;45.508;12.252;2022-08-20T11:19:47;2.65;;;0.75;;
38785;SDS011;24535;45.508;12.252;2022-08-20T11:22:13;3.53;;;0.75;;
38785;SDS011;24535;45.508;12.252;2022-08-20T11:24:42;2.10;;;0.60;;
38785;SDS011;24535;45.508;12.252;2022-08-20T11:27:07;1.90;;;0.85;;
38785;SDS011;24535;45.508;12.252;2022-08-20T11:29:40;3.67;;;0.93;;
38785;SDS011;24535;45.508;12.252;2022-08-20T11:35:24;3.90;;;0.80;;
38785;SDS011;24535;45.508;12.252;2022-08-20T11:37:52;2.67;;;0.77;;
38785;SDS011;24535;45.508;12.252;2022-08-20T11:40:19;1.63;;;0.88;;
38785;SDS011;24535;45.508;12.252;2022-08-20T11:42:45;1.95;;;0.90;;
38785;SDS011;24535;45.508;12.252;2022-08-20T11:45:11;3.03;;;1.15;;
38785;SDS011;24535;45.508;12.252;2022-08-20T11:47:38;1.40;;;0.88;;
38785;SDS011;24535;45.508;12.252;2022-08-20T11:52:34;3.15;;;0.80;;
38785;SDS011;24535;45.508;12.252;2022-08-20T11:54:59;1.23;;;0.60;;
38785;SDS011;24535;45.508;12.252;2022-08-20T11:57:26;2.65;;;0.90;;
38785;SDS011;24535;45.508;12.252;2022-08-20T11:59:54;1.85;;;1.05;;
38785;SDS011;24535;45.508;12.252;2022-08-20T12:02:21;2.17;;;0.77;;
38785;SDS011;24535;45.508;12.252;2022-08-20T12:04:47;1.55;;;0.95;;
38785;SDS011;24535;45.508;12.252;2022-08-20T12:07:14;3.20;;;0.73;;
38785;SDS011;24535;45.508;12.252;2022-08-20T12:15:27;2.42;;;1.10;;
38785;SDS011;24535;45.508;12.252;2022-08-20T12:17:53;3.72;;;0.73;;
38785;SDS011;24535;45.508;12.252;2022-08-20T12:20:19;1.23;;;0.55;;
38785;SDS011;24535;45.508;12.252;2022-08-20T12:22:46;3.63;;;1.00;;
38785;SDS011;24535;45.508;12.252;2022-08-20T12:25:11;1.58;;;0.60;;
38785;SDS011;24535;45.508;12.252;2022-08-20T12:27:37;1.58;;;0.60;;
38785;SDS011;24535;45.508;12.252;2022-08-20T12:30:05;0.98;;;0.52;;
38785;SDS011;24535;45.508;12.252;2022-08-20T12:32:40;0.70;;;0.40;;
38785;SDS011;24535;45.508;12.252;2022-08-20T12:35:06;2.25;;;0.50;;
38785;SDS011;24535;45.508;12.252;2022-08-20T12:37:35;1.73;;;0.80;;
38785;SDS011;24535;45.508;12.252;2022-08-20T12:40:02;1.55;;;0.70;;
38785;SDS011;24535;45.508;12.252;2022-08-20T12:42:29;1.25;;;0.50;;
38785;SDS011;24535;45.508;12.252;2022-08-20T12:44:56;2.92;;;0.82;;
38785;SDS011;24535;45.508;12.252;2022-08-20T12:47:23;3.58;;;0.60;;
38785;SDS011;24535;45.508;12.252;2022-08-20T12:49:51;1.83;;;0.80;;
38785;SDS011;24535;45.508;12.252;2022-08-20T12:52:22;1.48;;;0.50;;
38785;SDS011;24535;45.508;12.252;2022-08-20T12:54:49;0.85;;;0.52;;
38785;SDS011;24535;45.508;12.252;2022-08-20T12:57:25;1.65;;;0.80;;
38785;SDS011;24535;45.508;12.252;2022-08-20T12:59:52;2.90;;;0.60;;
38785;SDS011;24535;45.508;12.252;2022-08-20T13:02:18;1.00;;;0.70;;
38785;SDS011;24535;45.508;12.252;2022-08-20T13:04:43;1.35;;;0.45;;
38785;SDS011;24535;45.508;12.252;2022-08-20T13:07:09;3.30;;;0.98;;
38785;SDS011;24535;45.508;12.252;2022-08-20T13:09:37;1.05;;;0.55;;
38785;SDS011;24535;45.508;12.252;2022-08-20T13:12:03;1.75;;;0.75;;
38785;SDS011;24535;45.508;12.252;2022-08-20T13:14:28;0.98;;;0.40;;
38785;SDS011;24535;45.508;12.252;2022-08-20T13:16:56;0.93;;;0.40;;
38785;SDS011;24535;45.508;12.252;2022-08-20T13:19:23;1.00;;;0.50;;
38785;SDS011;24535;45.508;12.252;2022-08-20T13:21:50;1.88;;;0.60;;
38785;SDS011;24535;45.508;12.252;2022-08-20T13:24:16;2.38;;;0.60;;
38785;SDS011;24535;45.508;12.252;2022-08-20T13:26:41;0.85;;;0.40;;
38785;SDS011;24535;45.508;12.252;2022-08-20T13:29:07;4.18;;;0.50;;
38785;SDS011;24535;45.508;12.252;2022-08-20T13:31:32;3.00;;;0.70;;
38785;SDS011;24535;45.508;12.252;2022-08-20T13:33:58;2.53;;;0.70;;
38785;SDS011;24535;45.508;12.252;2022-08-20T13:36:23;0.95;;;0.45;;
38785;SDS011;24535;45.508;12.252;2022-08-20T13:38:49;0.65;;;0.32;;
38785;SDS011;24535;45.508;12.252;2022-08-20T13:41:14;3.15;;;0.80;;
38785;SDS011;24535;45.508;12.252;2022-08-20T13:43:39;2.40;;;0.25;;
38785;SDS011;24535;45.508;12.252;2022-08-20T13:46:05;0.50;;;0.22;;
38785;SDS011;24535;45.508;12.252;2022-08-20T13:48:31;3.40;;;0.57;;
38785;SDS011;24535;45.508;12.252;2022-08-20T13:50:57;1.92;;;0.45;;
38785;SDS011;24535;45.508;12.252;2022-08-20T13:53:23;1.48;;;0.38;;
38785;SDS011;24535;45.508;12.252;2022-08-20T13:55:48;0.77;;;0.50;;
38785;SDS011;24535;45.508;12.252;2022-08-20T13:58:14;1.17;;;0.47;;
38785;SDS011;24535;45.508;12.252;2022-08-20T14:00:47;1.30;;;0.43;;
38785;SDS011;24535;45.508;12.252;2022-08-20T14:03:16;0.88;;;0.35;;
38785;SDS011;24535;45.508;12.252;2022-08-20T14:05:41;1.13;;;0.50;;
38785;SDS011;24535;45.508;12.252;2022-08-20T14:10:54;1.70;;;0.60;;
38785;SDS011;24535;45.508;12.252;2022-08-20T14:13:29;2.45;;;0.40;;
38785;SDS011;24535;45.508;12.252;2022-08-20T14:15:54;0.88;;;0.32;;
38785;SDS011;24535;45.508;12.252;2022-08-20T14:18:20;1.88;;;0.57;;
38785;SDS011;24535;45.508;12.252;2022-08-20T14:20:46;2.80;;;0.38;;
38785;SDS011;24535;45.508;12.252;2022-08-20T14:23:11;1.15;;;0.20;;
38785;SDS011;24535;45.508;12.252;2022-08-20T14:25:38;2.20;;;0.57;;
38785;SDS011;24535;45.508;12.252;2022-08-20T14:28:10;1.65;;;0.50;;
38785;SDS011;24535;45.508;12.252;2022-08-20T14:30:40;1.90;;;0.75;;
38785;SDS011;24535;45.508;12.252;2022-08-20T14:33:06;2.58;;;0.60;;
38785;SDS011;24535;45.508;12.252;2022-08-20T14:35:32;3.33;;;0.73;;
38785;SDS011;24535;45.508;12.252;2022-08-20T14:37:57;1.80;;;0.40;;
38785;SDS011;24535;45.508;12.252;2022-08-20T14:40:24;0.82;;;0.43;;
38785;SDS011;24535;45.508;12.252;2022-08-20T14:42:54;2.70;;;0.57;;
38785;SDS011;24535;45.508;12.252;2022-08-20T14:45:20;1.08;;;0.43;;
38785;SDS011;24535;45.508;12.252;2022-08-20T14:47:47;1.40;;;0.47;;
38785;SDS011;24535;45.508;12.252;2022-08-20T14:50:19;1.13;;;0.60;;
38785;SDS011;24535;45.508;12.252;2022-08-20T14:52:48;2.65;;;0.70;;
38785;SDS011;24535;45.508;12.252;2022-08-20T14:55:15;2.08;;;0.73;;
38785;SDS011;24535;45.508;12.252;2022-08-20T14:57:43;2.08;;;0.93;;
38785;SDS011;24535;45.508;12.252;2022-08-20T15:00:10;3.10;;;0.68;;
38785;SDS011;24535;45.508;12.252;2022-08-20T15:02:42;1.98;;;0.60;;
38785;SDS011;24535;45.508;12.252;2022-08-20T15:05:08;1.83;;;0.57;;
38785;SDS011;24535;45.508;12.252;2022-08-20T15:10:10;3.30;;;0.52;;
38785;SDS011;24535;45.508;12.252;2022-08-20T15:12:38;1.75;;;0.60;;
38785;SDS011;24535;45.508;12.252;2022-08-20T15:15:05;3.70;;;0.90;;
38785;SDS011;24535;45.508;12.252;2022-08-20T15:17:32;2.47;;;0.60;;
38785;SDS011;24535;45.508;12.252;2022-08-20T15:20:00;5.38;;;0.90;;